sensor_id;sensor_type;location;lat;lon;timestamp;temperature;humidity
75010;DHT22;63564;46.840;18.336;2023-07-08T00:02:28;19.08;64.71
75010;DHT22;63564;46.840;18.336;2023-07-08T00:05:29;18.99;67.66
75010;DHT22;63564;46.840;18.336;2023-07-08T00:08:29;18.78;70.21
75010;DHT22;63564;46.840;18.336;2023-07-08T00:11:29;18.55;70.26
75010;DHT22;63564;46.840;18.336;2023-07-08T00:14:30;18.48;69.42
75010;DHT22;63564;46.840;18.336;2023-07-08T00:17:30;18.51;69.67
75010;DHT22;63564;46.840;18.336;2023-07-08T00:20:46;18.51;69.73
75010;DHT22;63564;46.840;18.336;2023-07-08T00:23:48;18.33;69.60
75010;DHT22;63564;46.840;18.336;2023-07-08T00:26:49;18.34;68.38
75010;DHT22;63564;46.840;18.336;2023-07-08T00:29:49;18.22;68.30
75010;DHT22;63564;46.840;18.336;2023-07-08T00:32:50;18.06;69.29
75010;DHT22;63564;46.840;18.336;2023-07-08T00:35:54;17.90;70.13
75010;DHT22;63564;46.840;18.336;2023-07-08T00:38:55;17.67;72.31
75010;DHT22;63564;46.840;18.336;2023-07-08T00:41:55;17.55;73.04
75010;DHT22;63564;46.840;18.336;2023-07-08T00:44:56;17.51;73.02
75010;DHT22;63564;46.840;18.336;2023-07-08T00:48:01;17.52;72.73
75010;DHT22;63564;46.840;18.336;2023-07-08T00:51:05;17.45;73.35
75010;DHT22;63564;46.840;18.336;2023-07-08T00:54:14;17.27;73.90
75010;DHT22;63564;46.840;18.336;2023-07-08T00:57:15;17.23;74.45
75010;DHT22;63564;46.840;18.336;2023-07-08T01:00:16;17.13;73.55
75010;DHT22;63564;46.840;18.336;2023-07-08T01:03:18;17.06;74.15
75010;DHT22;63564;46.840;18.336;2023-07-08T01:06:21;17.10;74.41
75010;DHT22;63564;46.840;18.336;2023-07-08T01:09:32;17.16;74.72
75010;DHT22;63564;46.840;18.336;2023-07-08T01:12:37;17.09;74.33
75010;DHT22;63564;46.840;18.336;2023-07-08T01:15:41;17.16;74.32
75010;DHT22;63564;46.840;18.336;2023-07-08T01:18:42;17.04;74.33
75010;DHT22;63564;46.840;18.336;2023-07-08T01:25:01;16.93;76.17
75010;DHT22;63564;46.840;18.336;2023-07-08T01:28:04;16.90;75.58
75010;DHT22;63564;46.840;18.336;2023-07-08T01:31:04;16.83;76.00
75010;DHT22;63564;46.840;18.336;2023-07-08T01:34:05;16.86;75.27
75010;DHT22;63564;46.840;18.336;2023-07-08T01:37:10;16.76;75.03
75010;DHT22;63564;46.840;18.336;2023-07-08T01:40:27;16.71;76.33
75010;DHT22;63564;46.840;18.336;2023-07-08T01:43:27;16.75;74.28
75010;DHT22;63564;46.840;18.336;2023-07-08T01:46:28;16.75;74.63
75010;DHT22;63564;46.840;18.336;2023-07-08T01:49:28;16.59;78.13
75010;DHT22;63564;46.840;18.336;2023-07-08T01:52:29;16.59;77.24
75010;DHT22;63564;46.840;18.336;2023-07-08T01:55:30;16.64;77.08
75010;DHT22;63564;46.840;18.336;2023-07-08T01:58:30;16.59;76.91
75010;DHT22;63564;46.840;18.336;2023-07-08T02:01:31;16.56;76.94
75010;DHT22;63564;46.840;18.336;2023-07-08T02:04:31;16.52;77.96
75010;DHT22;63564;46.840;18.336;2023-07-08T02:07:32;16.35;79.74
75010;DHT22;63564;46.840;18.336;2023-07-08T02:10:32;16.35;77.35
75010;DHT22;63564;46.840;18.336;2023-07-08T02:13:32;16.28;77.44
75010;DHT22;63564;46.840;18.336;2023-07-08T02:16:33;16.24;77.74
75010;DHT22;63564;46.840;18.336;2023-07-08T02:19:33;16.22;78.03
75010;DHT22;63564;46.840;18.336;2023-07-08T02:22:33;16.20;77.97
75010;DHT22;63564;46.840;18.336;2023-07-08T02:25:34;16.17;77.12
75010;DHT22;63564;46.840;18.336;2023-07-08T02:28:34;16.06;79.32
75010;DHT22;63564;46.840;18.336;2023-07-08T02:31:34;16.00;79.81
75010;DHT22;63564;46.840;18.336;2023-07-08T02:34:36;16.04;79.82
75010;DHT22;63564;46.840;18.336;2023-07-08T02:37:36;16.03;77.92
75010;DHT22;63564;46.840;18.336;2023-07-08T02:40:37;15.90;80.49
75010;DHT22;63564;46.840;18.336;2023-07-08T02:43:38;15.60;82.64
75010;DHT22;63564;46.840;18.336;2023-07-08T02:46:38;15.46;85.49
75010;DHT22;63564;46.840;18.336;2023-07-08T02:49:39;15.53;82.32
75010;DHT22;63564;46.840;18.336;2023-07-08T02:52:39;15.63;81.52
75010;DHT22;63564;46.840;18.336;2023-07-08T02:55:40;15.67;81.13
75010;DHT22;63564;46.840;18.336;2023-07-08T02:58:42;15.66;81.72
75010;DHT22;63564;46.840;18.336;2023-07-08T03:01:43;15.60;81.79
75010;DHT22;63564;46.840;18.336;2023-07-08T03:04:43;15.67;79.27
75010;DHT22;63564;46.840;18.336;2023-07-08T03:07:43;15.70;80.72
75010;DHT22;63564;46.840;18.336;2023-07-08T03:10:48;15.58;83.47
75010;DHT22;63564;46.840;18.336;2023-07-08T03:13:49;15.38;85.09
75010;DHT22;63564;46.840;18.336;2023-07-08T03:16:49;15.34;84.10
75010;DHT22;63564;46.840;18.336;2023-07-08T03:19:50;15.48;81.00
75010;DHT22;63564;46.840;18.336;2023-07-08T03:22:50;15.52;82.18
75010;DHT22;63564;46.840;18.336;2023-07-08T03:25:51;15.49;82.55
75010;DHT22;63564;46.840;18.336;2023-07-08T03:28:52;15.48;82.36
75010;DHT22;63564;46.840;18.336;2023-07-08T03:31:53;15.45;82.39
75010;DHT22;63564;46.840;18.336;2023-07-08T03:34:54;15.52;81.36
75010;DHT22;63564;46.840;18.336;2023-07-08T03:37:54;15.42;81.55
75010;DHT22;63564;46.840;18.336;2023-07-08T03:40:54;15.42;80.47
75010;DHT22;63564;46.840;18.336;2023-07-08T03:43:55;15.55;81.66
75010;DHT22;63564;46.840;18.336;2023-07-08T03:46:55;15.58;81.74
75010;DHT22;63564;46.840;18.336;2023-07-08T03:49:56;15.79;81.46
75010;DHT22;63564;46.840;18.336;2023-07-08T03:52:56;15.85;80.75
75010;DHT22;63564;46.840;18.336;2023-07-08T03:55:56;15.91;81.61
75010;DHT22;63564;46.840;18.336;2023-07-08T03:58:57;16.06;81.30
75010;DHT22;63564;46.840;18.336;2023-07-08T04:01:57;16.03;81.91
75010;DHT22;63564;46.840;18.336;2023-07-08T04:04:58;16.01;82.61
75010;DHT22;63564;46.840;18.336;2023-07-08T04:07:58;16.06;82.63
75010;DHT22;63564;46.840;18.336;2023-07-08T04:10:58;16.08;83.15
75010;DHT22;63564;46.840;18.336;2023-07-08T04:13:59;16.16;82.76
75010;DHT22;63564;46.840;18.336;2023-07-08T04:16:59;16.32;82.32
75010;DHT22;63564;46.840;18.336;2023-07-08T04:20:00;16.40;82.28
75010;DHT22;63564;46.840;18.336;2023-07-08T04:23:03;16.68;81.63
75010;DHT22;63564;46.840;18.336;2023-07-08T04:26:04;16.80;80.94
75010;DHT22;63564;46.840;18.336;2023-07-08T04:29:04;16.93;81.01
75010;DHT22;63564;46.840;18.336;2023-07-08T04:32:05;17.17;80.16
75010;DHT22;63564;46.840;18.336;2023-07-08T04:35:06;17.17;79.33
75010;DHT22;63564;46.840;18.336;2023-07-08T04:38:09;17.23;79.41
75010;DHT22;63564;46.840;18.336;2023-07-08T04:41:11;17.38;79.76
75010;DHT22;63564;46.840;18.336;2023-07-08T04:44:12;17.58;78.68
75010;DHT22;63564;46.840;18.336;2023-07-08T04:47:13;17.65;78.41
75010;DHT22;63564;46.840;18.336;2023-07-08T04:50:13;17.82;77.74
75010;DHT22;63564;46.840;18.336;2023-07-08T04:53:14;17.99;77.32
75010;DHT22;63564;46.840;18.336;2023-07-08T04:56:15;18.06;76.60
75010;DHT22;63564;46.840;18.336;2023-07-08T04:59:21;18.12;76.85
75010;DHT22;63564;46.840;18.336;2023-07-08T05:02:21;18.26;77.38
75010;DHT22;63564;46.840;18.336;2023-07-08T05:05:22;18.30;76.91
75010;DHT22;63564;46.840;18.336;2023-07-08T05:08:22;18.43;77.76
75010;DHT22;63564;46.840;18.336;2023-07-08T05:11:23;18.53;76.00
75010;DHT22;63564;46.840;18.336;2023-07-08T05:14:23;18.64;74.27
75010;DHT22;63564;46.840;18.336;2023-07-08T05:17:23;18.78;73.48
75010;DHT22;63564;46.840;18.336;2023-07-08T05:20:25;18.91;74.04
75010;DHT22;63564;46.840;18.336;2023-07-08T05:23:25;18.98;74.35
75010;DHT22;63564;46.840;18.336;2023-07-08T05:26:26;19.09;74.25
75010;DHT22;63564;46.840;18.336;2023-07-08T05:29:26;19.22;73.13
75010;DHT22;63564;46.840;18.336;2023-07-08T05:32:26;19.41;73.26
75010;DHT22;63564;46.840;18.336;2023-07-08T05:35:27;19.54;73.26
75010;DHT22;63564;46.840;18.336;2023-07-08T05:38:28;19.51;72.87
75010;DHT22;63564;46.840;18.336;2023-07-08T05:41:28;19.53;70.77
75010;DHT22;63564;46.840;18.336;2023-07-08T05:44:29;19.81;70.42
75010;DHT22;63564;46.840;18.336;2023-07-08T05:47:29;19.88;70.45
75010;DHT22;63564;46.840;18.336;2023-07-08T05:50:29;19.98;69.98
75010;DHT22;63564;46.840;18.336;2023-07-08T05:53:30;20.11;70.44
75010;DHT22;63564;46.840;18.336;2023-07-08T05:56:30;20.23;72.24
75010;DHT22;63564;46.840;18.336;2023-07-08T05:59:31;20.37;68.98
75010;DHT22;63564;46.840;18.336;2023-07-08T06:02:31;20.50;67.42
75010;DHT22;63564;46.840;18.336;2023-07-08T06:05:31;20.63;67.25
75010;DHT22;63564;46.840;18.336;2023-07-08T06:08:33;20.90;67.32
75010;DHT22;63564;46.840;18.336;2023-07-08T06:11:34;21.12;67.67
75010;DHT22;63564;46.840;18.336;2023-07-08T06:14:34;21.11;66.54
75010;DHT22;63564;46.840;18.336;2023-07-08T06:17:34;20.95;66.41
75010;DHT22;63564;46.840;18.336;2023-07-08T06:20:35;21.12;66.77
75010;DHT22;63564;46.840;18.336;2023-07-08T06:23:35;20.84;67.59
75010;DHT22;63564;46.840;18.336;2023-07-08T06:26:36;21.16;67.79
75010;DHT22;63564;46.840;18.336;2023-07-08T06:29:36;21.25;65.87
75010;DHT22;63564;46.840;18.336;2023-07-08T06:32:36;21.32;67.05
75010;DHT22;63564;46.840;18.336;2023-07-08T06:35:38;21.49;67.42
75010;DHT22;63564;46.840;18.336;2023-07-08T06:38:38;21.67;66.39
75010;DHT22;63564;46.840;18.336;2023-07-08T06:41:39;21.87;63.77
75010;DHT22;63564;46.840;18.336;2023-07-08T06:44:39;22.10;66.48
75010;DHT22;63564;46.840;18.336;2023-07-08T06:47:39;22.22;64.54
75010;DHT22;63564;46.840;18.336;2023-07-08T06:50:42;22.29;64.28
75010;DHT22;63564;46.840;18.336;2023-07-08T06:53:43;22.45;66.59
75010;DHT22;63564;46.840;18.336;2023-07-08T06:56:43;22.70;63.66
75010;DHT22;63564;46.840;18.336;2023-07-08T06:59:44;22.99;59.86
75010;DHT22;63564;46.840;18.336;2023-07-08T07:02:44;23.13;58.88
75010;DHT22;63564;46.840;18.336;2023-07-08T07:05:44;22.99;61.31
75010;DHT22;63564;46.840;18.336;2023-07-08T07:08:45;23.20;59.10
75010;DHT22;63564;46.840;18.336;2023-07-08T07:11:45;23.27;59.20
75010;DHT22;63564;46.840;18.336;2023-07-08T07:14:46;23.42;58.16
75010;DHT22;63564;46.840;18.336;2023-07-08T07:17:46;23.57;58.44
75010;DHT22;63564;46.840;18.336;2023-07-08T07:20:50;23.69;58.62
75010;DHT22;63564;46.840;18.336;2023-07-08T07:23:50;23.86;57.00
75010;DHT22;63564;46.840;18.336;2023-07-08T07:26:51;24.03;53.63
75010;DHT22;63564;46.840;18.336;2023-07-08T07:29:51;24.06;56.10
75010;DHT22;63564;46.840;18.336;2023-07-08T07:32:52;24.26;56.17
75010;DHT22;63564;46.840;18.336;2023-07-08T07:35:52;24.27;56.57
75010;DHT22;63564;46.840;18.336;2023-07-08T07:38:53;24.36;57.25
75010;DHT22;63564;46.840;18.336;2023-07-08T07:41:53;24.58;53.10
75010;DHT22;63564;46.840;18.336;2023-07-08T07:44:54;24.55;55.90
75010;DHT22;63564;46.840;18.336;2023-07-08T07:47:54;24.69;54.17
75010;DHT22;63564;46.840;18.336;2023-07-08T07:50:54;24.85;56.13
75010;DHT22;63564;46.840;18.336;2023-07-08T07:53:55;24.79;54.00
75010;DHT22;63564;46.840;18.336;2023-07-08T07:56:55;24.86;54.81
75010;DHT22;63564;46.840;18.336;2023-07-08T07:59:56;24.89;53.30
75010;DHT22;63564;46.840;18.336;2023-07-08T08:02:56;25.05;51.94
75010;DHT22;63564;46.840;18.336;2023-07-08T08:05:57;24.98;51.99
75010;DHT22;63564;46.840;18.336;2023-07-08T08:08:57;25.05;52.07
75010;DHT22;63564;46.840;18.336;2023-07-08T08:11:58;25.27;52.44
75010;DHT22;63564;46.840;18.336;2023-07-08T08:14:58;25.24;50.85
75010;DHT22;63564;46.840;18.336;2023-07-08T08:17:58;25.34;49.94
75010;DHT22;63564;46.840;18.336;2023-07-08T08:20:59;25.43;51.21
75010;DHT22;63564;46.840;18.336;2023-07-08T08:23:59;25.36;51.01
75010;DHT22;63564;46.840;18.336;2023-07-08T08:27:00;25.48;49.64
75010;DHT22;63564;46.840;18.336;2023-07-08T08:30:01;25.50;51.97
75010;DHT22;63564;46.840;18.336;2023-07-08T08:33:01;25.64;50.53
75010;DHT22;63564;46.840;18.336;2023-07-08T08:36:03;25.78;49.23
75010;DHT22;63564;46.840;18.336;2023-07-08T08:39:03;25.61;49.48
75010;DHT22;63564;46.840;18.336;2023-07-08T08:42:04;25.63;48.79
75010;DHT22;63564;46.840;18.336;2023-07-08T08:45:07;25.66;46.97
75010;DHT22;63564;46.840;18.336;2023-07-08T08:48:10;25.91;47.85
75010;DHT22;63564;46.840;18.336;2023-07-08T08:51:15;25.60;52.54
75010;DHT22;63564;46.840;18.336;2023-07-08T08:54:16;25.54;53.51
75010;DHT22;63564;46.840;18.336;2023-07-08T08:57:31;25.67;48.41
75010;DHT22;63564;46.840;18.336;2023-07-08T09:01:00;25.77;47.48
75010;DHT22;63564;46.840;18.336;2023-07-08T09:04:20;26.21;48.81
75010;DHT22;63564;46.840;18.336;2023-07-08T09:07:21;26.08;45.76
75010;DHT22;63564;46.840;18.336;2023-07-08T09:10:35;26.25;47.55
75010;DHT22;63564;46.840;18.336;2023-07-08T09:13:40;26.47;46.91
75010;DHT22;63564;46.840;18.336;2023-07-08T09:20:21;26.67;44.45
75010;DHT22;63564;46.840;18.336;2023-07-08T09:23:29;26.60;46.48
75010;DHT22;63564;46.840;18.336;2023-07-08T09:26:32;26.35;48.90
75010;DHT22;63564;46.840;18.336;2023-07-08T09:29:33;26.43;46.73
75010;DHT22;63564;46.840;18.336;2023-07-08T09:32:34;26.53;46.78
75010;DHT22;63564;46.840;18.336;2023-07-08T09:35:43;26.94;45.18
75010;DHT22;63564;46.840;18.336;2023-07-08T09:38:49;26.99;46.24
75010;DHT22;63564;46.840;18.336;2023-07-08T09:41:50;27.08;46.40
75010;DHT22;63564;46.840;18.336;2023-07-08T09:44:55;27.16;47.72
75010;DHT22;63564;46.840;18.336;2023-07-08T09:47:57;26.70;45.59
75010;DHT22;63564;46.840;18.336;2023-07-08T09:50:58;26.61;45.65
75010;DHT22;63564;46.840;18.336;2023-07-08T09:53:58;27.05;45.17
75010;DHT22;63564;46.840;18.336;2023-07-08T09:57:03;27.36;44.70
75010;DHT22;63564;46.840;18.336;2023-07-08T10:00:13;27.38;46.38
75010;DHT22;63564;46.840;18.336;2023-07-08T10:03:30;26.88;46.27
75010;DHT22;63564;46.840;18.336;2023-07-08T10:06:33;27.28;46.66
75010;DHT22;63564;46.840;18.336;2023-07-08T10:09:35;27.24;43.61
75010;DHT22;63564;46.840;18.336;2023-07-08T10:12:38;27.22;45.57
75010;DHT22;63564;46.840;18.336;2023-07-08T10:15:42;26.94;46.94
75010;DHT22;63564;46.840;18.336;2023-07-08T10:18:44;26.73;47.03
75010;DHT22;63564;46.840;18.336;2023-07-08T10:28:24;26.91;48.21
75010;DHT22;63564;46.840;18.336;2023-07-08T10:31:34;27.29;44.76
75010;DHT22;63564;46.840;18.336;2023-07-08T10:41:35;27.52;45.24
75010;DHT22;63564;46.840;18.336;2023-07-08T11:00:42;28.01;44.47
75010;DHT22;63564;46.840;18.336;2023-07-08T11:11:01;27.73;44.40
75010;DHT22;63564;46.840;18.336;2023-07-08T11:14:16;27.50;44.61
75010;DHT22;63564;46.840;18.336;2023-07-08T11:17:24;27.49;43.74
75010;DHT22;63564;46.840;18.336;2023-07-08T11:20:52;27.69;43.99
75010;DHT22;63564;46.840;18.336;2023-07-08T11:23:56;28.15;43.77
75010;DHT22;63564;46.840;18.336;2023-07-08T11:27:08;28.55;42.79
75010;DHT22;63564;46.840;18.336;2023-07-08T11:30:21;28.56;42.70
75010;DHT22;63564;46.840;18.336;2023-07-08T11:33:24;28.84;41.48
75010;DHT22;63564;46.840;18.336;2023-07-08T11:36:25;28.79;43.04
75010;DHT22;63564;46.840;18.336;2023-07-08T11:39:39;28.32;42.63
75010;DHT22;63564;46.840;18.336;2023-07-08T11:42:41;28.25;42.98
75010;DHT22;63564;46.840;18.336;2023-07-08T11:45:43;28.55;44.31
75010;DHT22;63564;46.840;18.336;2023-07-08T11:48:48;28.44;45.55
75010;DHT22;63564;46.840;18.336;2023-07-08T11:51:56;28.52;44.38
75010;DHT22;63564;46.840;18.336;2023-07-08T11:55:15;28.77;43.22
75010;DHT22;63564;46.840;18.336;2023-07-08T11:58:23;28.58;43.24
75010;DHT22;63564;46.840;18.336;2023-07-08T12:01:32;28.93;40.49
75010;DHT22;63564;46.840;18.336;2023-07-08T12:07:56;29.13;41.08
75010;DHT22;63564;46.840;18.336;2023-07-08T12:11:01;29.21;38.89
75010;DHT22;63564;46.840;18.336;2023-07-08T12:14:04;28.82;41.86
75010;DHT22;63564;46.840;18.336;2023-07-08T12:17:10;28.77;41.14
75010;DHT22;63564;46.840;18.336;2023-07-08T12:20:27;29.30;46.80
75010;DHT22;63564;46.840;18.336;2023-07-08T12:23:29;29.44;39.71
75010;DHT22;63564;46.840;18.336;2023-07-08T12:26:29;29.88;41.63
75010;DHT22;63564;46.840;18.336;2023-07-08T12:29:31;30.14;39.03
75010;DHT22;63564;46.840;18.336;2023-07-08T12:32:32;29.98;38.96
75010;DHT22;63564;46.840;18.336;2023-07-08T12:35:34;30.47;39.71
75010;DHT22;63564;46.840;18.336;2023-07-08T12:38:38;30.61;41.70
75010;DHT22;63564;46.840;18.336;2023-07-08T12:41:39;31.53;37.99
75010;DHT22;63564;46.840;18.336;2023-07-08T12:44:40;31.03;43.87
75010;DHT22;63564;46.840;18.336;2023-07-08T12:47:44;31.16;38.04
75010;DHT22;63564;46.840;18.336;2023-07-08T12:50:44;31.19;37.21
75010;DHT22;63564;46.840;18.336;2023-07-08T12:53:45;30.27;39.35
75010;DHT22;63564;46.840;18.336;2023-07-08T12:56:47;30.61;38.01
75010;DHT22;63564;46.840;18.336;2023-07-08T12:59:47;30.38;38.66
75010;DHT22;63564;46.840;18.336;2023-07-08T13:02:53;31.00;37.67
75010;DHT22;63564;46.840;18.336;2023-07-08T13:05:57;31.63;34.12
75010;DHT22;63564;46.840;18.336;2023-07-08T13:09:18;31.19;36.14
75010;DHT22;63564;46.840;18.336;2023-07-08T13:12:23;31.61;36.86
75010;DHT22;63564;46.840;18.336;2023-07-08T13:15:32;32.29;35.38
75010;DHT22;63564;46.840;18.336;2023-07-08T13:18:36;32.91;33.88
75010;DHT22;63564;46.840;18.336;2023-07-08T13:21:37;32.98;32.89
75010;DHT22;63564;46.840;18.336;2023-07-08T13:24:38;34.40;33.29
75010;DHT22;63564;46.840;18.336;2023-07-08T13:27:39;35.29;30.14
75010;DHT22;63564;46.840;18.336;2023-07-08T13:30:50;35.40;30.54
75010;DHT22;63564;46.840;18.336;2023-07-08T13:33:53;35.13;32.65
75010;DHT22;63564;46.840;18.336;2023-07-08T13:36:54;34.66;32.71
75010;DHT22;63564;46.840;18.336;2023-07-08T13:39:54;35.81;30.18
75010;DHT22;63564;46.840;18.336;2023-07-08T13:42:55;34.20;34.67
75010;DHT22;63564;46.840;18.336;2023-07-08T13:45:55;34.49;32.02
75010;DHT22;63564;46.840;18.336;2023-07-08T13:48:56;34.01;32.28
75010;DHT22;63564;46.840;18.336;2023-07-08T13:55:17;33.76;31.32
75010;DHT22;63564;46.840;18.336;2023-07-08T13:58:18;34.64;30.38
75010;DHT22;63564;46.840;18.336;2023-07-08T14:01:21;36.04;28.77
75010;DHT22;63564;46.840;18.336;2023-07-08T14:04:32;38.20;25.96
75010;DHT22;63564;46.840;18.336;2023-07-08T14:07:33;38.47;26.06
75010;DHT22;63564;46.840;18.336;2023-07-08T14:10:33;36.92;27.37
75010;DHT22;63564;46.840;18.336;2023-07-08T14:13:34;36.87;29.13
75010;DHT22;63564;46.840;18.336;2023-07-08T14:16:37;34.88;29.61
75010;DHT22;63564;46.840;18.336;2023-07-08T14:19:39;34.56;30.17
75010;DHT22;63564;46.840;18.336;2023-07-08T14:22:39;35.94;33.01
75010;DHT22;63564;46.840;18.336;2023-07-08T14:25:40;34.24;31.82
75010;DHT22;63564;46.840;18.336;2023-07-08T14:28:40;34.54;31.66
75010;DHT22;63564;46.840;18.336;2023-07-08T14:31:41;34.21;31.80
75010;DHT22;63564;46.840;18.336;2023-07-08T14:34:42;35.58;31.17
75010;DHT22;63564;46.840;18.336;2023-07-08T14:37:48;34.69;30.67
75010;DHT22;63564;46.840;18.336;2023-07-08T14:40:48;36.19;28.89
75010;DHT22;63564;46.840;18.336;2023-07-08T14:43:49;37.69;30.78
75010;DHT22;63564;46.840;18.336;2023-07-08T14:46:50;37.32;27.65
75010;DHT22;63564;46.840;18.336;2023-07-08T14:49:50;37.84;26.46
75010;DHT22;63564;46.840;18.336;2023-07-08T14:52:52;36.40;29.55
75010;DHT22;63564;46.840;18.336;2023-07-08T14:55:54;32.52;36.56
75010;DHT22;63564;46.840;18.336;2023-07-08T14:58:55;31.57;37.30
75010;DHT22;63564;46.840;18.336;2023-07-08T15:01:57;30.91;40.69
75010;DHT22;63564;46.840;18.336;2023-07-08T15:04:58;30.16;40.38
75010;DHT22;63564;46.840;18.336;2023-07-08T15:07:59;30.44;38.51
75010;DHT22;63564;46.840;18.336;2023-07-08T15:10:59;29.31;41.46
75010;DHT22;63564;46.840;18.336;2023-07-08T15:14:02;28.94;40.99
75010;DHT22;63564;46.840;18.336;2023-07-08T15:17:08;28.90;43.75
75010;DHT22;63564;46.840;18.336;2023-07-08T15:20:11;29.63;40.07
75010;DHT22;63564;46.840;18.336;2023-07-08T15:23:13;29.52;38.69
75010;DHT22;63564;46.840;18.336;2023-07-08T15:26:14;29.21;40.19
75010;DHT22;63564;46.840;18.336;2023-07-08T15:29:17;29.10;40.26
75010;DHT22;63564;46.840;18.336;2023-07-08T15:32:18;28.93;38.26
75010;DHT22;63564;46.840;18.336;2023-07-08T15:35:23;28.94;42.01
75010;DHT22;63564;46.840;18.336;2023-07-08T15:38:30;28.52;42.78
75010;DHT22;63564;46.840;18.336;2023-07-08T15:41:30;28.58;45.19
75010;DHT22;63564;46.840;18.336;2023-07-08T15:44:30;28.66;43.16
75010;DHT22;63564;46.840;18.336;2023-07-08T15:47:31;28.35;42.43
75010;DHT22;63564;46.840;18.336;2023-07-08T15:50:31;28.18;44.00
75010;DHT22;63564;46.840;18.336;2023-07-08T15:53:31;28.39;44.99
75010;DHT22;63564;46.840;18.336;2023-07-08T15:56:32;28.55;42.95
75010;DHT22;63564;46.840;18.336;2023-07-08T15:59:32;28.14;40.11
75010;DHT22;63564;46.840;18.336;2023-07-08T16:02:33;28.35;39.63
75010;DHT22;63564;46.840;18.336;2023-07-08T16:05:37;28.39;40.48
75010;DHT22;63564;46.840;18.336;2023-07-08T16:08:37;28.14;41.61
75010;DHT22;63564;46.840;18.336;2023-07-08T16:11:38;28.41;39.94
75010;DHT22;63564;46.840;18.336;2023-07-08T16:14:38;28.45;41.50
75010;DHT22;63564;46.840;18.336;2023-07-08T16:17:39;28.29;41.99
75010;DHT22;63564;46.840;18.336;2023-07-08T16:20:39;28.14;39.62
75010;DHT22;63564;46.840;18.336;2023-07-08T16:23:40;28.04;39.97
75010;DHT22;63564;46.840;18.336;2023-07-08T16:26:40;28.10;41.57
75010;DHT22;63564;46.840;18.336;2023-07-08T16:29:41;28.05;41.12
75010;DHT22;63564;46.840;18.336;2023-07-08T16:32:42;28.04;42.70
75010;DHT22;63564;46.840;18.336;2023-07-08T16:35:43;27.89;43.56
75010;DHT22;63564;46.840;18.336;2023-07-08T16:38:44;27.86;45.98
75010;DHT22;63564;46.840;18.336;2023-07-08T16:41:44;27.83;44.58
75010;DHT22;63564;46.840;18.336;2023-07-08T16:44:45;27.87;40.35
75010;DHT22;63564;46.840;18.336;2023-07-08T16:47:46;27.96;40.28
75010;DHT22;63564;46.840;18.336;2023-07-08T16:50:47;27.90;42.21
75010;DHT22;63564;46.840;18.336;2023-07-08T16:53:48;27.82;42.77
75010;DHT22;63564;46.840;18.336;2023-07-08T16:56:48;27.49;47.76
75010;DHT22;63564;46.840;18.336;2023-07-08T16:59:49;27.38;44.85
75010;DHT22;63564;46.840;18.336;2023-07-08T17:02:49;27.26;45.73
75010;DHT22;63564;46.840;18.336;2023-07-08T17:05:50;27.35;44.30
75010;DHT22;63564;46.840;18.336;2023-07-08T17:08:51;27.34;43.88
75010;DHT22;63564;46.840;18.336;2023-07-08T17:11:51;27.35;45.77
75010;DHT22;63564;46.840;18.336;2023-07-08T17:14:52;27.31;44.46
75010;DHT22;63564;46.840;18.336;2023-07-08T17:17:56;27.29;45.14
75010;DHT22;63564;46.840;18.336;2023-07-08T17:21:00;27.19;44.51
75010;DHT22;63564;46.840;18.336;2023-07-08T17:24:01;27.15;45.01
75010;DHT22;63564;46.840;18.336;2023-07-08T17:27:01;27.12;44.63
75010;DHT22;63564;46.840;18.336;2023-07-08T17:30:01;27.04;45.05
75010;DHT22;63564;46.840;18.336;2023-07-08T17:33:02;26.88;45.76
75010;DHT22;63564;46.840;18.336;2023-07-08T17:36:09;26.84;46.31
75010;DHT22;63564;46.840;18.336;2023-07-08T17:39:10;26.76;46.24
75010;DHT22;63564;46.840;18.336;2023-07-08T17:42:10;26.69;46.10
75010;DHT22;63564;46.840;18.336;2023-07-08T17:45:12;26.59;46.95
75010;DHT22;63564;46.840;18.336;2023-07-08T17:48:14;26.44;47.30
75010;DHT22;63564;46.840;18.336;2023-07-08T17:51:23;26.29;47.66
75010;DHT22;63564;46.840;18.336;2023-07-08T17:54:24;26.28;49.10
75010;DHT22;63564;46.840;18.336;2023-07-08T17:57:25;26.02;49.92
75010;DHT22;63564;46.840;18.336;2023-07-08T18:00:26;25.89;50.20
75010;DHT22;63564;46.840;18.336;2023-07-08T18:03:28;25.78;50.93
75010;DHT22;63564;46.840;18.336;2023-07-08T18:06:28;25.66;51.64
75010;DHT22;63564;46.840;18.336;2023-07-08T18:09:29;25.48;52.41
75010;DHT22;63564;46.840;18.336;2023-07-08T18:12:29;25.29;53.22
75010;DHT22;63564;46.840;18.336;2023-07-08T18:15:34;25.08;53.97
75010;DHT22;63564;46.840;18.336;2023-07-08T18:18:36;24.95;54.63
75010;DHT22;63564;46.840;18.336;2023-07-08T18:21:37;24.78;55.06
75010;DHT22;63564;46.840;18.336;2023-07-08T18:24:37;24.71;55.19
75010;DHT22;63564;46.840;18.336;2023-07-08T18:27:38;24.55;55.80
75010;DHT22;63564;46.840;18.336;2023-07-08T18:30:38;24.45;55.89
75010;DHT22;63564;46.840;18.336;2023-07-08T18:33:39;24.38;56.20
75010;DHT22;63564;46.840;18.336;2023-07-08T18:36:40;24.31;56.34
75010;DHT22;63564;46.840;18.336;2023-07-08T18:39:41;24.13;56.55
75010;DHT22;63564;46.840;18.336;2023-07-08T18:42:52;24.05;56.61
75010;DHT22;63564;46.840;18.336;2023-07-08T18:45:53;23.92;56.99
75010;DHT22;63564;46.840;18.336;2023-07-08T18:48:54;23.76;58.27
75010;DHT22;63564;46.840;18.336;2023-07-08T18:51:54;23.68;58.04
75010;DHT22;63564;46.840;18.336;2023-07-08T18:54:54;23.51;58.13
75010;DHT22;63564;46.840;18.336;2023-07-08T18:57:55;23.37;58.12
75010;DHT22;63564;46.840;18.336;2023-07-08T19:00:55;23.27;58.43
75010;DHT22;63564;46.840;18.336;2023-07-08T19:03:57;23.21;58.24
75010;DHT22;63564;46.840;18.336;2023-07-08T19:06:57;23.17;57.95
75010;DHT22;63564;46.840;18.336;2023-07-08T19:09:58;23.13;58.00
75010;DHT22;63564;46.840;18.336;2023-07-08T19:12:58;23.08;57.84
75010;DHT22;63564;46.840;18.336;2023-07-08T19:15:58;23.03;58.02
75010;DHT22;63564;46.840;18.336;2023-07-08T19:18:59;22.99;57.91
75010;DHT22;63564;46.840;18.336;2023-07-08T19:21:59;22.94;57.86
75010;DHT22;63564;46.840;18.336;2023-07-08T19:25:01;22.89;57.98
75010;DHT22;63564;46.840;18.336;2023-07-08T19:28:04;22.83;57.66
75010;DHT22;63564;46.840;18.336;2023-07-08T19:31:16;22.69;57.68
75010;DHT22;63564;46.840;18.336;2023-07-08T19:34:17;22.59;59.01
75010;DHT22;63564;46.840;18.336;2023-07-08T19:37:18;22.45;60.97
75010;DHT22;63564;46.840;18.336;2023-07-08T19:40:20;22.35;60.70
75010;DHT22;63564;46.840;18.336;2023-07-08T19:43:21;22.28;59.48